createdAt,value
2023-05-19T05:01:22.167Z,8.20
2023-05-19T05:04:08.853Z,7.85
2023-05-19T05:06:55.229Z,7.78
2023-05-19T05:09:43.237Z,7.25
2023-05-19T05:12:30.215Z,8.43
2023-05-19T05:41:50.370Z,7.35
2023-05-19T05:44:37.020Z,8.05
2023-05-19T05:47:25.411Z,7.72
2023-05-19T05:50:13.740Z,7.55
2023-05-19T05:53:02.743Z,7.45
2023-05-19T05:55:51.083Z,6.88
2023-05-19T05:58:40.731Z,6.68
2023-05-19T06:01:28.082Z,6.43
2023-05-19T06:04:14.749Z,7.30
2023-05-19T06:07:02.415Z,7.10
2023-05-19T06:09:53.042Z,6.72
2023-05-19T06:12:40.622Z,6.43
2023-05-19T06:15:29.203Z,6.78
2023-05-19T06:18:20.267Z,5.93
2023-05-19T06:21:10.155Z,6.22
2023-05-19T06:23:57.154Z,6.68
2023-05-19T06:26:44.259Z,6.18
2023-05-19T06:29:30.793Z,6.45
2023-05-19T06:35:10.956Z,6.53
2023-05-19T06:37:57.804Z,5.78
2023-05-19T06:40:44.253Z,6.38
2023-05-19T06:43:31.122Z,5.97
2023-05-19T06:46:23.117Z,5.85
2023-05-19T06:49:11.732Z,5.65
2023-05-19T06:52:02.216Z,4.78
2023-05-19T06:54:50.843Z,5.15
2023-05-19T06:57:38.364Z,5.05
2023-05-19T07:00:25.880Z,4.05
2023-05-19T07:03:14.908Z,4.72
2023-05-19T07:06:04.037Z,5.28
2023-05-19T07:08:51.526Z,4.28
2023-05-19T07:11:38.876Z,4.40
2023-05-19T07:14:26.087Z,4.88
2023-05-19T07:17:13.684Z,4.60
2023-05-19T07:22:55.335Z,4.00
2023-05-19T07:25:42.491Z,3.65
2023-05-19T07:28:29.096Z,3.58
2023-05-19T07:31:15.703Z,3.75
2023-05-19T07:34:02.225Z,3.47
2023-05-19T07:36:48.264Z,3.60
2023-05-19T07:39:36.848Z,3.67
2023-05-19T07:42:23.641Z,3.78
2023-05-19T07:45:10.613Z,3.40
2023-05-19T07:47:57.300Z,3.83
2023-05-19T07:50:44.278Z,4.15
2023-05-19T07:53:31.025Z,3.35
2023-05-19T07:56:19.233Z,3.42
2023-05-19T07:59:07.854Z,2.92
2023-05-19T08:01:54.161Z,3.70
2023-05-19T08:04:41.629Z,3.50
2023-05-19T08:07:28.096Z,2.83
2023-05-19T08:10:14.568Z,3.35
2023-05-19T08:13:02.107Z,3.72
2023-05-19T08:15:48.932Z,3.08
2023-05-19T08:18:37.680Z,3.53
2023-05-19T08:21:24.724Z,3.22
2023-05-19T08:24:13.504Z,3.38
2023-05-19T08:26:59.627Z,3.22
2023-05-19T08:29:57.263Z,3.05
2023-05-19T08:32:43.750Z,3.10
2023-05-19T08:35:40.646Z,3.95
2023-05-19T08:38:27.300Z,3.25
2023-05-19T08:41:13.786Z,3.47
2023-05-19T08:44:08.591Z,3.50
2023-05-19T08:46:56.950Z,3.03
2023-05-19T08:49:56.840Z,2.90
2023-05-19T08:53:15.314Z,4.22
2023-05-19T08:56:20.629Z,3.88
2023-05-19T08:59:15.884Z,2.58
2023-05-19T09:02:04.617Z,2.67
2023-05-19T09:05:05.353Z,3.05
2023-05-19T09:08:23.941Z,3.08
2023-05-19T09:12:08.517Z,2.92
2023-05-19T09:15:27.200Z,2.78
2023-05-19T09:18:16.000Z,2.60
2023-05-19T09:34:13.750Z,2.38
2023-05-19T09:45:54.688Z,2.67
2023-05-19T09:49:25.564Z,1.88
2023-05-19T09:52:18.173Z,2.10
2023-05-19T09:55:06.564Z,1.73
2023-05-19T09:57:57.539Z,1.90
2023-05-19T10:00:45.305Z,2.00
2023-05-19T10:03:32.686Z,1.77
2023-05-19T10:06:21.112Z,1.67
2023-05-19T10:09:09.935Z,1.67
2023-05-19T10:11:58.292Z,2.35
2023-05-19T10:14:44.788Z,1.85
2023-05-19T11:11:20.297Z,2.47
2023-05-19T11:14:35.056Z,3.50
2023-05-19T11:17:24.199Z,2.28
2023-05-19T11:20:23.379Z,2.50
2023-05-19T11:23:10.770Z,2.20
2023-05-19T11:26:03.559Z,2.22
2023-05-19T11:28:51.293Z,2.10
2023-05-19T11:31:40.443Z,2.33
2023-05-19T11:34:30.551Z,2.30
2023-05-19T11:40:07.084Z,2.30
2023-05-19T11:42:55.969Z,2.03
2023-05-19T11:45:42.847Z,2.00
2023-05-19T11:48:32.957Z,2.95
2023-05-19T11:51:22.428Z,2.33
2023-05-19T11:54:09.179Z,2.40
2023-05-19T11:56:56.294Z,2.60
2023-05-19T12:00:44.472Z,2.42
2023-05-19T12:03:33.062Z,2.35
2023-05-19T12:06:19.574Z,2.00
2023-05-19T12:09:06.537Z,2.55
2023-05-19T12:11:53.409Z,2.28
2023-05-19T12:14:39.536Z,2.40
2023-05-19T12:17:26.494Z,2.25
2023-05-19T12:20:15.004Z,2.15
2023-05-19T12:23:02.489Z,2.20
2023-05-19T12:25:49.329Z,2.58
2023-05-19T12:28:36.283Z,1.98
2023-05-19T12:31:24.002Z,2.03
2023-05-19T12:34:13.574Z,2.40
2023-05-19T12:37:04.217Z,2.50
2023-05-19T12:39:51.471Z,2.80
2023-05-19T12:42:37.875Z,1.80
2023-05-19T12:45:25.830Z,2.20
2023-05-19T12:48:15.857Z,2.25
2023-05-19T12:51:02.086Z,2.60
2023-05-19T12:53:51.203Z,2.20
2023-05-19T12:56:37.658Z,2.20
2023-05-19T12:59:37.493Z,2.30
2023-05-19T13:02:25.713Z,1.80
2023-05-19T13:05:12.549Z,1.98
2023-05-19T13:08:00.224Z,2.08
2023-05-19T13:10:49.101Z,2.47
2023-05-19T13:13:35.459Z,2.08
2023-05-19T13:16:21.715Z,2.00
2023-05-19T13:19:17.557Z,2.20
2023-05-19T13:22:24.830Z,2.20
2023-05-19T13:25:13.750Z,2.42
2023-05-19T13:28:04.916Z,2.45
2023-05-19T13:30:52.117Z,2.10
2023-05-19T13:33:38.556Z,2.10
2023-05-19T13:36:24.953Z,3.25
2023-05-19T13:39:11.460Z,2.65
2023-05-19T13:41:59.481Z,2.55
2023-05-19T13:44:47.818Z,2.65
2023-05-19T13:47:34.437Z,2.63
2023-05-19T13:50:21.007Z,2.70
2023-05-19T13:53:08.361Z,2.20
2023-05-19T13:55:56.169Z,2.55
2023-05-19T13:58:42.531Z,2.40
2023-05-19T14:01:30.407Z,2.30
2023-05-19T14:04:20.069Z,2.17
2023-05-19T14:07:07.230Z,3.10
2023-05-19T14:09:53.717Z,2.88
2023-05-19T14:12:58.102Z,2.30
2023-05-19T14:15:47.098Z,2.33
2023-05-19T14:18:34.877Z,2.38
2023-05-19T14:21:21.440Z,2.08
2023-05-19T14:24:08.516Z,2.13
2023-05-19T14:26:55.209Z,2.50
2023-05-19T14:29:41.592Z,2.28
2023-05-19T14:32:30.234Z,2.80
2023-05-19T14:35:18.668Z,2.83
2023-05-19T14:38:05.089Z,2.47
2023-05-19T14:40:52.298Z,2.63
2023-05-19T14:43:38.817Z,2.35
2023-05-19T14:46:25.381Z,2.45
2023-05-19T14:49:12.099Z,2.00
2023-05-19T14:51:59.865Z,2.35
2023-05-19T14:54:46.421Z,2.42
2023-05-19T14:57:32.936Z,2.20
2023-05-19T15:46:05.265Z,2.22
2023-05-19T15:48:53.024Z,4.35
2023-05-19T15:51:39.781Z,2.17
2023-05-19T15:54:26.855Z,5.18
2023-05-19T15:57:13.624Z,1.95
2023-05-19T16:00:00.472Z,3.17
2023-05-19T16:02:48.772Z,2.53
2023-05-19T16:05:35.094Z,2.38
2023-05-19T16:08:21.517Z,2.50
2023-05-19T16:11:08.342Z,1.98
2023-05-19T16:13:54.920Z,1.98
2023-05-19T18:46:21.092Z,2.63
2023-05-19T18:49:08.709Z,2.30
2023-05-19T18:51:55.921Z,2.70
2023-05-19T18:54:42.907Z,3.08
2023-05-19T18:57:29.339Z,3.08
2023-05-19T19:15:59.487Z,3.88
2023-05-19T19:18:46.072Z,3.58
2023-05-19T19:21:32.774Z,3.42
2023-05-19T19:24:19.153Z,3.40
2023-05-19T19:27:06.366Z,3.40
2023-05-19T19:29:53.977Z,3.45
2023-05-19T19:32:41.884Z,3.83
2023-05-19T19:35:28.590Z,3.65
2023-05-19T19:38:15.393Z,3.00
2023-05-19T19:41:01.939Z,3.38
2023-05-19T19:43:48.276Z,3.60
2023-05-19T19:46:34.882Z,3.30
2023-05-19T19:49:22.731Z,3.28
2023-05-19T19:52:10.286Z,4.07
2023-05-19T19:54:57.222Z,3.75
2023-05-19T19:57:45.642Z,3.40
2023-05-19T22:01:55.554Z,3.78
2023-05-19T22:04:42.849Z,4.10
2023-05-19T22:07:28.932Z,4.07
2023-05-19T22:10:15.729Z,3.85
2023-05-19T22:13:02.372Z,4.28
